Barcelona, Spain

10:55 AM CEST on August 30, 2015 (GMT +0200)
Avenida doctor Gallart i Mones, | | Change Station
CLOSE
Current Station
Personal Weather Station
Location: El Prat De Llobregat, CATALUNYA
Elevation: 13 ft
Nearby Weather Stations

Elev 13 ft 41.32 °N, 2.09 °E | Updated 29 seconds ago

Partly Cloudy
Partly Cloudy
78.5 °F
Feels Like 81 °F
N
6.0
Wind Variable Wind from NE
Gusts 9.0 mph

Today
High -- | Low -- °F
--% Chance of Precip.
Yesterday
High -- | Low -- °F
Precip. -- in
7:15 AM 8:28 PM
Waxing Gibbous, 99% visible
Pressure 30.09 in
Visibility 6.2 miles
Clouds Few 1100 ft
Heat Index 81 °F
Dew Point 70 °F
Humidity 76%
Rainfall 0.00 in
Snow Depth Not available.
UV 2.9 out of 12
Pollen Not available.
Air Quality Not available.
Flu Activity Not available.
METAR LEBL 300830Z 05007KT 010V080 9999 FEW011 26/19 Q1019 NOSIG
Pressure 30.09 in
Visibility 6.2 miles
Clouds Few 1100 ft
Heat Index 81 °F
Dew Point 70 °F
Humidity 76%
Rainfall 0.00 in
Snow Depth Not available.
UV 2.9 out of 12
Pollen Not available.
Air Quality Not available.
Flu Activity Not available.
METAR LEBL 300830Z 05007KT 010V080 9999 FEW011 26/19 Q1019 NOSIG

10-Day Weather Forecast

×

Almanac

Astronomy

Aug. 30, 2015 Rise Set
Actual Time
Civil Twilight
Nautical Twilight
Astronomical Twilight
Moon
Length of Visible Light
Length of Day
Tomorrow will be .
, % of the Moon is Illuminated

Today's Extremes

Country Highs Country Lows

Community

WunderPhotos

Upload Photos

1,850,909 photos uploaded!

WunderBlogs® & News

Nearby

Air Quality

  Air Quality AQ Index Pollutant
Not available.

Snow Depth

Station Depth Elevation

Earthquake Activity

City Distance Mag. Time & Date
Minimum magnitude displayed is 2.5.

Coastal Water Temperatures

Place Temperature

Stations

Nearby Weather Stations

Station Location Temp. Windchill Dew Point Humidity Wind Precip. Elev Updated Type